sensor_id;sensor_type;location;lat;lon;timestamp;P1;durP1;ratioP1;P2;durP2;ratioP2
42098;SDS011;27758;55.900;8.516;2022-07-29T00:00:45;4.55;;;2.15;;
42098;SDS011;27758;55.900;8.516;2022-07-29T00:03:11;5.65;;;2.78;;
42098;SDS011;27758;55.900;8.516;2022-07-29T00:05:39;4.72;;;2.70;;
42098;SDS011;27758;55.900;8.516;2022-07-29T00:08:06;4.55;;;2.45;;
42098;SDS011;27758;55.900;8.516;2022-07-29T00:10:35;3.22;;;2.33;;
42098;SDS011;27758;55.900;8.516;2022-07-29T00:13:01;3.88;;;2.35;;
42098;SDS011;27758;55.900;8.516;2022-07-29T00:15:27;2.60;;;2.40;;
42098;SDS011;27758;55.900;8.516;2022-07-29T00:17:53;3.75;;;2.45;;
42098;SDS011;27758;55.900;8.516;2022-07-29T00:20:19;3.78;;;2.35;;
42098;SDS011;27758;55.900;8.516;2022-07-29T00:22:45;4.00;;;2.60;;
42098;SDS011;27758;55.900;8.516;2022-07-29T00:25:11;4.15;;;2.55;;
42098;SDS011;27758;55.900;8.516;2022-07-29T00:27:38;7.32;;;2.85;;
42098;SDS011;27758;55.900;8.516;2022-07-29T00:30:04;4.43;;;2.28;;
42098;SDS011;27758;55.900;8.516;2022-07-29T00:32:31;7.10;;;3.00;;
42098;SDS011;27758;55.900;8.516;2022-07-29T00:34:56;4.18;;;3.30;;
42098;SDS011;27758;55.900;8.516;2022-07-29T00:37:41;7.32;;;3.22;;
42098;SDS011;27758;55.900;8.516;2022-07-29T00:40:07;5.65;;;3.50;;
42098;SDS011;27758;55.900;8.516;2022-07-29T00:42:45;4.78;;;3.60;;
42098;SDS011;27758;55.900;8.516;2022-07-29T00:45:13;8.95;;;4.57;;
42098;SDS011;27758;55.900;8.516;2022-07-29T00:47:39;7.60;;;4.20;;
42098;SDS011;27758;55.900;8.516;2022-07-29T00:50:06;8.57;;;4.38;;
42098;SDS011;27758;55.900;8.516;2022-07-29T00:52:33;9.18;;;4.57;;
42098;SDS011;27758;55.900;8.516;2022-07-29T00:55:02;7.40;;;4.35;;
42098;SDS011;27758;55.900;8.516;2022-07-29T00:57:29;6.75;;;3.97;;
42098;SDS011;27758;55.900;8.516;2022-07-29T00:59:55;6.47;;;4.07;;
42098;SDS011;27758;55.900;8.516;2022-07-29T01:02:21;7.78;;;3.92;;
42098;SDS011;27758;55.900;8.516;2022-07-29T01:04:47;4.65;;;3.28;;
42098;SDS011;27758;55.900;8.516;2022-07-29T01:07:13;4.35;;;3.05;;
42098;SDS011;27758;55.900;8.516;2022-07-29T01:09:40;6.90;;;2.75;;
42098;SDS011;27758;55.900;8.516;2022-07-29T01:12:08;2.97;;;2.25;;
42098;SDS011;27758;55.900;8.516;2022-07-29T01:14:35;3.97;;;2.67;;
42098;SDS011;27758;55.900;8.516;2022-07-29T01:17:12;2.33;;;2.13;;
42098;SDS011;27758;55.900;8.516;2022-07-29T01:30:34;4.32;;;2.70;;
42098;SDS011;27758;55.900;8.516;2022-07-29T01:33:06;6.17;;;2.27;;
42098;SDS011;27758;55.900;8.516;2022-07-29T01:35:40;8.23;;;2.45;;
42098;SDS011;27758;55.900;8.516;2022-07-29T01:38:10;3.38;;;2.38;;
42098;SDS011;27758;55.900;8.516;2022-07-29T01:40:46;4.38;;;2.47;;
42098;SDS011;27758;55.900;8.516;2022-07-29T01:43:17;4.40;;;1.85;;
42098;SDS011;27758;55.900;8.516;2022-07-29T01:45:48;3.08;;;2.15;;
42098;SDS011;27758;55.900;8.516;2022-07-29T01:48:34;3.97;;;2.33;;
42098;SDS011;27758;55.900;8.516;2022-07-29T01:54:06;3.90;;;2.13;;
42098;SDS011;27758;55.900;8.516;2022-07-29T01:56:35;3.10;;;1.90;;
42098;SDS011;27758;55.900;8.516;2022-07-29T01:59:03;4.13;;;1.95;;
42098;SDS011;27758;55.900;8.516;2022-07-29T02:01:32;2.65;;;1.90;;
42098;SDS011;27758;55.900;8.516;2022-07-29T02:04:01;3.42;;;2.45;;
42098;SDS011;27758;55.900;8.516;2022-07-29T02:06:32;8.32;;;2.50;;
42098;SDS011;27758;55.900;8.516;2022-07-29T02:09:00;7.50;;;2.35;;
42098;SDS011;27758;55.900;8.516;2022-07-29T02:11:29;4.40;;;2.28;;
42098;SDS011;27758;55.900;8.516;2022-07-29T02:13:57;5.97;;;2.40;;
42098;SDS011;27758;55.900;8.516;2022-07-29T02:16:25;4.28;;;2.67;;
42098;SDS011;27758;55.900;8.516;2022-07-29T02:18:54;3.13;;;2.27;;
42098;SDS011;27758;55.900;8.516;2022-07-29T02:21:25;4.47;;;2.53;;
42098;SDS011;27758;55.900;8.516;2022-07-29T02:23:53;4.30;;;2.17;;
42098;SDS011;27758;55.900;8.516;2022-07-29T02:26:21;4.40;;;2.20;;
42098;SDS011;27758;55.900;8.516;2022-07-29T02:28:50;3.22;;;2.22;;
42098;SDS011;27758;55.900;8.516;2022-07-29T02:31:19;2.97;;;2.17;;
42098;SDS011;27758;55.900;8.516;2022-07-29T02:33:48;6.00;;;2.88;;
42098;SDS011;27758;55.900;8.516;2022-07-29T02:36:14;5.43;;;2.85;;
42098;SDS011;27758;55.900;8.516;2022-07-29T02:38:42;5.28;;;3.13;;
42098;SDS011;27758;55.900;8.516;2022-07-29T02:43:48;4.82;;;2.58;;
42098;SDS011;27758;55.900;8.516;2022-07-29T02:46:20;5.93;;;3.25;;
42098;SDS011;27758;55.900;8.516;2022-07-29T02:52:11;4.72;;;3.08;;
42098;SDS011;27758;55.900;8.516;2022-07-29T02:54:44;5.70;;;3.10;;
42098;SDS011;27758;55.900;8.516;2022-07-29T02:57:30;5.03;;;2.78;;
42098;SDS011;27758;55.900;8.516;2022-07-29T03:00:00;4.80;;;3.00;;
42098;SDS011;27758;55.900;8.516;2022-07-29T03:02:31;3.25;;;2.58;;
42098;SDS011;27758;55.900;8.516;2022-07-29T03:05:02;5.05;;;2.83;;
42098;SDS011;27758;55.900;8.516;2022-07-29T03:07:29;3.38;;;2.30;;
42098;SDS011;27758;55.900;8.516;2022-07-29T03:09:56;5.60;;;2.75;;
42098;SDS011;27758;55.900;8.516;2022-07-29T03:12:23;3.55;;;2.80;;
42098;SDS011;27758;55.900;8.516;2022-07-29T03:14:50;5.32;;;2.47;;
42098;SDS011;27758;55.900;8.516;2022-07-29T03:17:17;7.13;;;3.03;;
42098;SDS011;27758;55.900;8.516;2022-07-29T03:19:44;5.25;;;3.10;;
42098;SDS011;27758;55.900;8.516;2022-07-29T03:22:10;5.40;;;2.58;;
42098;SDS011;27758;55.900;8.516;2022-07-29T03:24:36;3.50;;;2.88;;
42098;SDS011;27758;55.900;8.516;2022-07-29T03:27:02;2.75;;;2.40;;
42098;SDS011;27758;55.900;8.516;2022-07-29T03:29:29;3.88;;;2.40;;
42098;SDS011;27758;55.900;8.516;2022-07-29T03:31:55;6.90;;;2.70;;
42098;SDS011;27758;55.900;8.516;2022-07-29T03:34:21;3.70;;;2.65;;
42098;SDS011;27758;55.900;8.516;2022-07-29T03:36:48;3.30;;;2.15;;
42098;SDS011;27758;55.900;8.516;2022-07-29T03:39:18;4.22;;;2.75;;
42098;SDS011;27758;55.900;8.516;2022-07-29T03:41:49;3.75;;;2.60;;
42098;SDS011;27758;55.900;8.516;2022-07-29T03:44:18;4.13;;;2.78;;
42098;SDS011;27758;55.900;8.516;2022-07-29T03:46:46;7.43;;;3.42;;
42098;SDS011;27758;55.900;8.516;2022-07-29T03:49:15;4.55;;;2.78;;
42098;SDS011;27758;55.900;8.516;2022-07-29T03:51:42;4.80;;;3.25;;
42098;SDS011;27758;55.900;8.516;2022-07-29T03:54:08;6.93;;;3.45;;
42098;SDS011;27758;55.900;8.516;2022-07-29T03:56:34;4.85;;;2.92;;
42098;SDS011;27758;55.900;8.516;2022-07-29T03:59:04;5.45;;;3.67;;
42098;SDS011;27758;55.900;8.516;2022-07-29T04:01:32;4.80;;;3.30;;
42098;SDS011;27758;55.900;8.516;2022-07-29T04:03:59;7.93;;;3.35;;
42098;SDS011;27758;55.900;8.516;2022-07-29T04:06:26;5.00;;;3.45;;
42098;SDS011;27758;55.900;8.516;2022-07-29T04:08:52;6.53;;;3.72;;
42098;SDS011;27758;55.900;8.516;2022-07-29T04:11:18;4.95;;;3.15;;
42098;SDS011;27758;55.900;8.516;2022-07-29T04:13:44;3.72;;;2.80;;
42098;SDS011;27758;55.900;8.516;2022-07-29T04:16:10;6.90;;;3.53;;
42098;SDS011;27758;55.900;8.516;2022-07-29T04:18:36;5.63;;;3.38;;
42098;SDS011;27758;55.900;8.516;2022-07-29T04:21:02;7.47;;;3.85;;
42098;SDS011;27758;55.900;8.516;2022-07-29T04:23:29;4.60;;;3.53;;
42098;SDS011;27758;55.900;8.516;2022-07-29T04:25:58;7.72;;;4.45;;
42098;SDS011;27758;55.900;8.516;2022-07-29T04:28:26;5.85;;;4.15;;
42098;SDS011;27758;55.900;8.516;2022-07-29T04:30:52;5.93;;;3.85;;
42098;SDS011;27758;55.900;8.516;2022-07-29T04:33:17;5.10;;;3.15;;
42098;SDS011;27758;55.900;8.516;2022-07-29T04:35:43;8.38;;;4.45;;
42098;SDS011;27758;55.900;8.516;2022-07-29T04:38:09;8.35;;;3.90;;
42098;SDS011;27758;55.900;8.516;2022-07-29T04:40:36;9.07;;;4.30;;
42098;SDS011;27758;55.900;8.516;2022-07-29T04:43:02;12.65;;;4.63;;
42098;SDS011;27758;55.900;8.516;2022-07-29T04:45:28;8.00;;;4.72;;
42098;SDS011;27758;55.900;8.516;2022-07-29T04:47:54;9.23;;;5.45;;
42098;SDS011;27758;55.900;8.516;2022-07-29T04:50:21;10.10;;;5.22;;
42098;SDS011;27758;55.900;8.516;2022-07-29T04:52:47;10.75;;;5.20;;
42098;SDS011;27758;55.900;8.516;2022-07-29T04:55:13;10.50;;;5.20;;
42098;SDS011;27758;55.900;8.516;2022-07-29T04:57:39;13.02;;;5.07;;
42098;SDS011;27758;55.900;8.516;2022-07-29T05:00:05;8.02;;;5.75;;
42098;SDS011;27758;55.900;8.516;2022-07-29T05:02:32;9.00;;;5.25;;
42098;SDS011;27758;55.900;8.516;2022-07-29T05:04:58;8.77;;;5.00;;
42098;SDS011;27758;55.900;8.516;2022-07-29T05:07:24;11.07;;;5.93;;
42098;SDS011;27758;55.900;8.516;2022-07-29T05:09:50;7.32;;;4.85;;
42098;SDS011;27758;55.900;8.516;2022-07-29T05:12:16;7.57;;;4.80;;
42098;SDS011;27758;55.900;8.516;2022-07-29T05:14:42;11.32;;;4.88;;
42098;SDS011;27758;55.900;8.516;2022-07-29T05:17:07;8.23;;;4.75;;
42098;SDS011;27758;55.900;8.516;2022-07-29T05:19:33;6.78;;;4.43;;
42098;SDS011;27758;55.900;8.516;2022-07-29T05:21:59;6.32;;;4.47;;
42098;SDS011;27758;55.900;8.516;2022-07-29T05:24:25;6.22;;;3.95;;
42098;SDS011;27758;55.900;8.516;2022-07-29T05:26:51;7.43;;;4.30;;
42098;SDS011;27758;55.900;8.516;2022-07-29T05:29:17;7.32;;;4.60;;
42098;SDS011;27758;55.900;8.516;2022-07-29T05:31:42;7.13;;;4.05;;
42098;SDS011;27758;55.900;8.516;2022-07-29T05:34:08;8.30;;;4.40;;
42098;SDS011;27758;55.900;8.516;2022-07-29T05:36:34;5.43;;;3.95;;
42098;SDS011;27758;55.900;8.516;2022-07-29T05:39:00;6.97;;;3.80;;
42098;SDS011;27758;55.900;8.516;2022-07-29T05:41:26;6.95;;;4.32;;
42098;SDS011;27758;55.900;8.516;2022-07-29T05:43:52;7.78;;;4.30;;
42098;SDS011;27758;55.900;8.516;2022-07-29T05:46:17;6.35;;;4.20;;
42098;SDS011;27758;55.900;8.516;2022-07-29T05:48:44;8.90;;;4.35;;
42098;SDS011;27758;55.900;8.516;2022-07-29T05:51:10;6.30;;;3.78;;
42098;SDS011;27758;55.900;8.516;2022-07-29T05:53:36;6.85;;;3.67;;
42098;SDS011;27758;55.900;8.516;2022-07-29T05:56:02;9.23;;;4.03;;
42098;SDS011;27758;55.900;8.516;2022-07-29T05:58:30;11.13;;;4.80;;
42098;SDS011;27758;55.900;8.516;2022-07-29T06:00:56;9.85;;;4.30;;
42098;SDS011;27758;55.900;8.516;2022-07-29T06:03:25;13.40;;;4.28;;
42098;SDS011;27758;55.900;8.516;2022-07-29T06:05:51;7.47;;;4.00;;
42098;SDS011;27758;55.900;8.516;2022-07-29T06:08:17;12.65;;;4.20;;
42098;SDS011;27758;55.900;8.516;2022-07-29T06:10:44;6.95;;;3.38;;
42098;SDS011;27758;55.900;8.516;2022-07-29T06:13:11;6.75;;;3.60;;
42098;SDS011;27758;55.900;8.516;2022-07-29T06:15:37;8.20;;;3.70;;
42098;SDS011;27758;55.900;8.516;2022-07-29T06:18:03;9.15;;;3.95;;
42098;SDS011;27758;55.900;8.516;2022-07-29T06:20:29;8.10;;;4.28;;
42098;SDS011;27758;55.900;8.516;2022-07-29T06:22:56;12.15;;;4.22;;
42098;SDS011;27758;55.900;8.516;2022-07-29T06:25:22;8.48;;;3.97;;
42098;SDS011;27758;55.900;8.516;2022-07-29T06:27:47;8.90;;;3.83;;
42098;SDS011;27758;55.900;8.516;2022-07-29T06:30:13;7.13;;;3.97;;
42098;SDS011;27758;55.900;8.516;2022-07-29T06:32:39;5.93;;;3.05;;
42098;SDS011;27758;55.900;8.516;2022-07-29T06:35:05;7.93;;;3.90;;
42098;SDS011;27758;55.900;8.516;2022-07-29T06:37:31;6.43;;;3.22;;
42098;SDS011;27758;55.900;8.516;2022-07-29T06:39:57;8.68;;;3.30;;
42098;SDS011;27758;55.900;8.516;2022-07-29T06:42:42;5.80;;;2.90;;
42098;SDS011;27758;55.900;8.516;2022-07-29T06:45:09;6.53;;;3.03;;
42098;SDS011;27758;55.900;8.516;2022-07-29T06:47:36;7.88;;;3.05;;
42098;SDS011;27758;55.900;8.516;2022-07-29T06:50:03;7.85;;;3.17;;
42098;SDS011;27758;55.900;8.516;2022-07-29T06:52:30;7.63;;;2.88;;
42098;SDS011;27758;55.900;8.516;2022-07-29T06:54:56;4.22;;;2.33;;
42098;SDS011;27758;55.900;8.516;2022-07-29T06:57:22;5.72;;;3.10;;
42098;SDS011;27758;55.900;8.516;2022-07-29T06:59:48;6.53;;;3.15;;
42098;SDS011;27758;55.900;8.516;2022-07-29T07:02:14;5.50;;;2.58;;
42098;SDS011;27758;55.900;8.516;2022-07-29T07:04:39;6.68;;;2.90;;
42098;SDS011;27758;55.900;8.516;2022-07-29T07:07:05;8.40;;;2.65;;
42098;SDS011;27758;55.900;8.516;2022-07-29T07:09:31;3.95;;;2.30;;
42098;SDS011;27758;55.900;8.516;2022-07-29T07:11:57;5.10;;;2.30;;
42098;SDS011;27758;55.900;8.516;2022-07-29T07:14:23;4.03;;;2.17;;
42098;SDS011;27758;55.900;8.516;2022-07-29T07:16:51;4.05;;;2.50;;
42098;SDS011;27758;55.900;8.516;2022-07-29T07:19:17;5.55;;;1.92;;
42098;SDS011;27758;55.900;8.516;2022-07-29T07:21:44;6.65;;;2.30;;
42098;SDS011;27758;55.900;8.516;2022-07-29T07:24:10;5.00;;;2.08;;
42098;SDS011;27758;55.900;8.516;2022-07-29T07:26:36;6.75;;;2.33;;
42098;SDS011;27758;55.900;8.516;2022-07-29T07:29:03;5.35;;;2.10;;
42098;SDS011;27758;55.900;8.516;2022-07-29T07:31:28;4.93;;;2.03;;
42098;SDS011;27758;55.900;8.516;2022-07-29T07:33:54;8.20;;;2.60;;
42098;SDS011;27758;55.900;8.516;2022-07-29T07:36:20;6.65;;;2.20;;
42098;SDS011;27758;55.900;8.516;2022-07-29T07:38:47;6.80;;;1.92;;
42098;SDS011;27758;55.900;8.516;2022-07-29T07:41:13;8.85;;;2.25;;
42098;SDS011;27758;55.900;8.516;2022-07-29T07:43:39;3.28;;;1.90;;
42098;SDS011;27758;55.900;8.516;2022-07-29T07:46:05;10.63;;;2.70;;
42098;SDS011;27758;55.900;8.516;2022-07-29T07:48:32;4.72;;;2.10;;
42098;SDS011;27758;55.900;8.516;2022-07-29T07:51:00;5.55;;;2.70;;
42098;SDS011;27758;55.900;8.516;2022-07-29T07:53:25;3.55;;;1.92;;
42098;SDS011;27758;55.900;8.516;2022-07-29T07:55:51;4.88;;;1.80;;
42098;SDS011;27758;55.900;8.516;2022-07-29T07:58:17;7.38;;;2.35;;
42098;SDS011;27758;55.900;8.516;2022-07-29T08:00:43;6.25;;;2.47;;
42098;SDS011;27758;55.900;8.516;2022-07-29T08:03:09;6.07;;;2.22;;
42098;SDS011;27758;55.900;8.516;2022-07-29T08:05:38;5.43;;;1.90;;
42098;SDS011;27758;55.900;8.516;2022-07-29T08:08:04;7.78;;;1.80;;
42098;SDS011;27758;55.900;8.516;2022-07-29T08:10:30;10.43;;;2.45;;
42098;SDS011;27758;55.900;8.516;2022-07-29T08:13:14;4.85;;;2.13;;
42098;SDS011;27758;55.900;8.516;2022-07-29T08:15:40;7.90;;;1.98;;
42098;SDS011;27758;55.900;8.516;2022-07-29T08:18:07;5.40;;;1.90;;
42098;SDS011;27758;55.900;8.516;2022-07-29T08:20:34;7.35;;;2.50;;
42098;SDS011;27758;55.900;8.516;2022-07-29T08:23:01;8.23;;;2.35;;
42098;SDS011;27758;55.900;8.516;2022-07-29T08:25:28;5.95;;;1.75;;
42098;SDS011;27758;55.900;8.516;2022-07-29T08:27:54;5.03;;;1.83;;
42098;SDS011;27758;55.900;8.516;2022-07-29T08:30:20;5.97;;;2.40;;
42098;SDS011;27758;55.900;8.516;2022-07-29T08:32:47;5.35;;;1.50;;
42098;SDS011;27758;55.900;8.516;2022-07-29T08:35:15;3.40;;;1.40;;
42098;SDS011;27758;55.900;8.516;2022-07-29T08:37:41;3.25;;;1.75;;
42098;SDS011;27758;55.900;8.516;2022-07-29T08:40:07;2.35;;;1.42;;
42098;SDS011;27758;55.900;8.516;2022-07-29T08:42:33;5.00;;;1.63;;
42098;SDS011;27758;55.900;8.516;2022-07-29T08:44:59;5.60;;;1.75;;
42098;SDS011;27758;55.900;8.516;2022-07-29T08:47:25;4.60;;;1.40;;
42098;SDS011;27758;55.900;8.516;2022-07-29T08:49:52;7.03;;;1.70;;
42098;SDS011;27758;55.900;8.516;2022-07-29T08:52:18;5.55;;;1.60;;
42098;SDS011;27758;55.900;8.516;2022-07-29T08:54:46;3.13;;;1.65;;
42098;SDS011;27758;55.900;8.516;2022-07-29T08:57:13;6.28;;;1.23;;
42098;SDS011;27758;55.900;8.516;2022-07-29T08:59:41;5.60;;;1.73;;
42098;SDS011;27758;55.900;8.516;2022-07-29T09:02:12;5.05;;;1.80;;
42098;SDS011;27758;55.900;8.516;2022-07-29T09:04:44;3.50;;;1.63;;
42098;SDS011;27758;55.900;8.516;2022-07-29T09:07:10;4.00;;;1.70;;
42098;SDS011;27758;55.900;8.516;2022-07-29T09:09:40;5.07;;;1.65;;
42098;SDS011;27758;55.900;8.516;2022-07-29T09:12:08;4.57;;;1.60;;
42098;SDS011;27758;55.900;8.516;2022-07-29T09:14:37;2.40;;;1.27;;
42098;SDS011;27758;55.900;8.516;2022-07-29T09:17:03;4.75;;;1.38;;
42098;SDS011;27758;55.900;8.516;2022-07-29T09:19:30;5.97;;;1.65;;
42098;SDS011;27758;55.900;8.516;2022-07-29T09:22:01;3.72;;;1.40;;
42098;SDS011;27758;55.900;8.516;2022-07-29T09:24:42;3.75;;;1.58;;
42098;SDS011;27758;55.900;8.516;2022-07-29T09:29:45;2.65;;;1.45;;
42098;SDS011;27758;55.900;8.516;2022-07-29T09:32:12;3.08;;;1.50;;
42098;SDS011;27758;55.900;8.516;2022-07-29T09:34:38;5.55;;;1.63;;
42098;SDS011;27758;55.900;8.516;2022-07-29T09:37:04;5.10;;;1.63;;
42098;SDS011;27758;55.900;8.516;2022-07-29T09:39:37;8.02;;;1.95;;
42098;SDS011;27758;55.900;8.516;2022-07-29T09:42:10;3.72;;;1.52;;
42098;SDS011;27758;55.900;8.516;2022-07-29T09:44:47;4.65;;;1.58;;
42098;SDS011;27758;55.900;8.516;2022-07-29T09:47:14;5.68;;;1.75;;
42098;SDS011;27758;55.900;8.516;2022-07-29T09:49:54;3.47;;;1.10;;
42098;SDS011;27758;55.900;8.516;2022-07-29T09:52:29;5.35;;;1.65;;
42098;SDS011;27758;55.900;8.516;2022-07-29T09:55:08;9.27;;;1.80;;
42098;SDS011;27758;55.900;8.516;2022-07-29T09:57:35;3.55;;;1.63;;
42098;SDS011;27758;55.900;8.516;2022-07-29T10:02:27;4.03;;;1.73;;
42098;SDS011;27758;55.900;8.516;2022-07-29T10:04:54;4.78;;;1.60;;
42098;SDS011;27758;55.900;8.516;2022-07-29T10:07:21;3.08;;;1.30;;
42098;SDS011;27758;55.900;8.516;2022-07-29T10:09:53;3.88;;;1.33;;
42098;SDS011;27758;55.900;8.516;2022-07-29T10:12:21;6.38;;;1.95;;
42098;SDS011;27758;55.900;8.516;2022-07-29T10:14:47;6.35;;;1.90;;
42098;SDS011;27758;55.900;8.516;2022-07-29T10:17:14;2.85;;;1.40;;
42098;SDS011;27758;55.900;8.516;2022-07-29T10:19:42;3.83;;;1.45;;
42098;SDS011;27758;55.900;8.516;2022-07-29T10:22:09;4.32;;;1.30;;
42098;SDS011;27758;55.900;8.516;2022-07-29T10:24:36;2.47;;;1.20;;
42098;SDS011;27758;55.900;8.516;2022-07-29T10:27:04;2.63;;;1.00;;
42098;SDS011;27758;55.900;8.516;2022-07-29T10:29:32;5.83;;;1.63;;
42098;SDS011;27758;55.900;8.516;2022-07-29T10:43:35;3.60;;;1.50;;
42098;SDS011;27758;55.900;8.516;2022-07-29T10:46:05;3.92;;;1.38;;
42098;SDS011;27758;55.900;8.516;2022-07-29T10:48:32;3.63;;;1.45;;
42098;SDS011;27758;55.900;8.516;2022-07-29T10:51:02;6.07;;;1.67;;
42098;SDS011;27758;55.900;8.516;2022-07-29T10:54:02;5.80;;;1.55;;
42098;SDS011;27758;55.900;8.516;2022-07-29T11:01:43;4.22;;;1.27;;
42098;SDS011;27758;55.900;8.516;2022-07-29T11:04:09;4.30;;;1.50;;
42098;SDS011;27758;55.900;8.516;2022-07-29T11:09:29;3.85;;;1.20;;
42098;SDS011;27758;55.900;8.516;2022-07-29T11:11:56;4.93;;;1.60;;
42098;SDS011;27758;55.900;8.516;2022-07-29T11:17:23;4.25;;;1.60;;
42098;SDS011;27758;55.900;8.516;2022-07-29T11:19:48;4.45;;;1.20;;
42098;SDS011;27758;55.900;8.516;2022-07-29T11:22:33;6.03;;;1.65;;
42098;SDS011;27758;55.900;8.516;2022-07-29T11:25:14;5.10;;;1.20;;
42098;SDS011;27758;55.900;8.516;2022-07-29T11:27:41;3.08;;;1.38;;
42098;SDS011;27758;55.900;8.516;2022-07-29T11:30:08;3.75;;;1.30;;
42098;SDS011;27758;55.900;8.516;2022-07-29T11:32:38;7.78;;;1.63;;
42098;SDS011;27758;55.900;8.516;2022-07-29T11:35:15;3.65;;;1.75;;
42098;SDS011;27758;55.900;8.516;2022-07-29T11:37:45;4.00;;;1.48;;
42098;SDS011;27758;55.900;8.516;2022-07-29T11:40:12;4.60;;;1.27;;
42098;SDS011;27758;55.900;8.516;2022-07-29T11:42:41;2.20;;;1.20;;
42098;SDS011;27758;55.900;8.516;2022-07-29T11:45:16;5.35;;;1.33;;
42098;SDS011;27758;55.900;8.516;2022-07-29T11:47:48;2.38;;;1.10;;
42098;SDS011;27758;55.900;8.516;2022-07-29T11:50:29;3.65;;;1.38;;
42098;SDS011;27758;55.900;8.516;2022-07-29T11:52:57;5.30;;;1.45;;
42098;SDS011;27758;55.900;8.516;2022-07-29T11:55:23;3.72;;;1.50;;
42098;SDS011;27758;55.900;8.516;2022-07-29T11:57:56;2.75;;;1.33;;
42098;SDS011;27758;55.900;8.516;2022-07-29T12:00:26;3.55;;;1.42;;
42098;SDS011;27758;55.900;8.516;2022-07-29T12:03:01;4.32;;;1.42;;
42098;SDS011;27758;55.900;8.516;2022-07-29T12:05:33;2.65;;;1.25;;
42098;SDS011;27758;55.900;8.516;2022-07-29T12:08:16;3.40;;;1.55;;
42098;SDS011;27758;55.900;8.516;2022-07-29T12:10:45;6.40;;;1.65;;
42098;SDS011;27758;55.900;8.516;2022-07-29T12:13:12;5.45;;;1.40;;
42098;SDS011;27758;55.900;8.516;2022-07-29T12:15:40;5.55;;;1.70;;
42098;SDS011;27758;55.900;8.516;2022-07-29T12:18:10;5.43;;;1.85;;
42098;SDS011;27758;55.900;8.516;2022-07-29T12:20:39;3.20;;;1.67;;
42098;SDS011;27758;55.900;8.516;2022-07-29T12:23:06;3.47;;;1.50;;
42098;SDS011;27758;55.900;8.516;2022-07-29T12:25:34;3.55;;;1.55;;
42098;SDS011;27758;55.900;8.516;2022-07-29T12:28:04;5.30;;;1.40;;
42098;SDS011;27758;55.900;8.516;2022-07-29T12:30:35;4.63;;;1.37;;
42098;SDS011;27758;55.900;8.516;2022-07-29T12:33:11;3.72;;;1.38;;
42098;SDS011;27758;55.900;8.516;2022-07-29T12:35:38;4.63;;;1.52;;
42098;SDS011;27758;55.900;8.516;2022-07-29T12:38:04;4.78;;;1.33;;
42098;SDS011;27758;55.900;8.516;2022-07-29T12:40:31;4.35;;;1.55;;
42098;SDS011;27758;55.900;8.516;2022-07-29T12:43:10;3.22;;;1.42;;
42098;SDS011;27758;55.900;8.516;2022-07-29T12:45:40;3.00;;;1.30;;
42098;SDS011;27758;55.900;8.516;2022-07-29T12:48:07;3.72;;;1.33;;
42098;SDS011;27758;55.900;8.516;2022-07-29T12:50:35;2.33;;;1.30;;
42098;SDS011;27758;55.900;8.516;2022-07-29T12:53:09;3.30;;;1.37;;
42098;SDS011;27758;55.900;8.516;2022-07-29T12:55:41;3.88;;;1.30;;
42098;SDS011;27758;55.900;8.516;2022-07-29T12:58:08;5.20;;;1.75;;
42098;SDS011;27758;55.900;8.516;2022-07-29T13:00:34;5.60;;;1.38;;
42098;SDS011;27758;55.900;8.516;2022-07-29T13:03:00;2.28;;;1.30;;
42098;SDS011;27758;55.900;8.516;2022-07-29T13:05:39;3.35;;;1.27;;
42098;SDS011;27758;55.900;8.516;2022-07-29T13:08:14;5.25;;;1.70;;
42098;SDS011;27758;55.900;8.516;2022-07-29T13:10:41;6.15;;;2.30;;
42098;SDS011;27758;55.900;8.516;2022-07-29T13:13:08;3.38;;;1.35;;
42098;SDS011;27758;55.900;8.516;2022-07-29T13:15:35;5.60;;;1.60;;
42098;SDS011;27758;55.900;8.516;2022-07-29T13:18:03;2.45;;;1.20;;
42098;SDS011;27758;55.900;8.516;2022-07-29T13:20:29;6.15;;;1.92;;
42098;SDS011;27758;55.900;8.516;2022-07-29T13:22:56;4.93;;;1.38;;
42098;SDS011;27758;55.900;8.516;2022-07-29T13:25:30;3.63;;;1.10;;
42098;SDS011;27758;55.900;8.516;2022-07-29T13:27:57;5.05;;;1.65;;
42098;SDS011;27758;55.900;8.516;2022-07-29T13:30:24;4.75;;;1.52;;
42098;SDS011;27758;55.900;8.516;2022-07-29T13:32:51;2.75;;;1.55;;
42098;SDS011;27758;55.900;8.516;2022-07-29T13:35:17;4.13;;;1.58;;
42098;SDS011;27758;55.900;8.516;2022-07-29T13:37:45;6.00;;;1.73;;
42098;SDS011;27758;55.900;8.516;2022-07-29T13:40:11;3.50;;;1.73;;
42098;SDS011;27758;55.900;8.516;2022-07-29T13:42:37;4.25;;;1.38;;
42098;SDS011;27758;55.900;8.516;2022-07-29T13:45:04;5.03;;;1.85;;
42098;SDS011;27758;55.900;8.516;2022-07-29T13:47:31;5.05;;;1.77;;
42098;SDS011;27758;55.900;8.516;2022-07-29T13:49:57;4.28;;;1.58;;
42098;SDS011;27758;55.900;8.516;2022-07-29T13:52:23;2.53;;;1.23;;
42098;SDS011;27758;55.900;8.516;2022-07-29T13:54:49;3.22;;;1.30;;
42098;SDS011;27758;55.900;8.516;2022-07-29T13:57:15;3.00;;;1.20;;
42098;SDS011;27758;55.900;8.516;2022-07-29T13:59:41;4.47;;;1.30;;
42098;SDS011;27758;55.900;8.516;2022-07-29T14:02:07;4.20;;;1.35;;
42098;SDS011;27758;55.900;8.516;2022-07-29T14:04:34;5.47;;;1.88;;
42098;SDS011;27758;55.900;8.516;2022-07-29T14:07:00;1.73;;;1.05;;
42098;SDS011;27758;55.900;8.516;2022-07-29T14:09:27;3.97;;;1.70;;
42098;SDS011;27758;55.900;8.516;2022-07-29T14:11:53;6.22;;;1.73;;
42098;SDS011;27758;55.900;8.516;2022-07-29T14:14:19;4.60;;;1.73;;
42098;SDS011;27758;55.900;8.516;2022-07-29T14:16:45;7.75;;;1.77;;
42098;SDS011;27758;55.900;8.516;2022-07-29T14:19:11;4.70;;;1.52;;
42098;SDS011;27758;55.900;8.516;2022-07-29T14:21:37;3.65;;;1.38;;
42098;SDS011;27758;55.900;8.516;2022-07-29T14:24:04;3.67;;;1.48;;
42098;SDS011;27758;55.900;8.516;2022-07-29T14:26:30;4.20;;;1.40;;
42098;SDS011;27758;55.900;8.516;2022-07-29T14:28:56;6.25;;;1.55;;
42098;SDS011;27758;55.900;8.516;2022-07-29T14:31:22;4.20;;;1.33;;
42098;SDS011;27758;55.900;8.516;2022-07-29T14:33:47;4.88;;;1.40;;
42098;SDS011;27758;55.900;8.516;2022-07-29T14:36:13;7.65;;;1.25;;
42098;SDS011;27758;55.900;8.516;2022-07-29T14:38:39;3.30;;;1.45;;
42098;SDS011;27758;55.900;8.516;2022-07-29T14:41:06;3.60;;;1.23;;
42098;SDS011;27758;55.900;8.516;2022-07-29T14:43:33;4.10;;;1.17;;
42098;SDS011;27758;55.900;8.516;2022-07-29T14:46:02;5.78;;;1.90;;
42098;SDS011;27758;55.900;8.516;2022-07-29T14:48:28;3.78;;;1.75;;
42098;SDS011;27758;55.900;8.516;2022-07-29T14:50:54;6.57;;;2.00;;
42098;SDS011;27758;55.900;8.516;2022-07-29T14:53:21;7.18;;;1.27;;
42098;SDS011;27758;55.900;8.516;2022-07-29T14:55:47;3.75;;;1.33;;
42098;SDS011;27758;55.900;8.516;2022-07-29T14:58:14;4.45;;;1.30;;
42098;SDS011;27758;55.900;8.516;2022-07-29T15:00:40;6.25;;;1.70;;
42098;SDS011;27758;55.900;8.516;2022-07-29T15:03:06;5.32;;;1.33;;
42098;SDS011;27758;55.900;8.516;2022-07-29T15:05:34;4.97;;;1.60;;
42098;SDS011;27758;55.900;8.516;2022-07-29T15:08:00;5.63;;;1.55;;
42098;SDS011;27758;55.900;8.516;2022-07-29T15:10:26;5.13;;;1.65;;
42098;SDS011;27758;55.900;8.516;2022-07-29T15:12:52;6.32;;;1.73;;
42098;SDS011;27758;55.900;8.516;2022-07-29T15:15:19;3.22;;;1.35;;
42098;SDS011;27758;55.900;8.516;2022-07-29T15:17:45;3.95;;;1.70;;
42098;SDS011;27758;55.900;8.516;2022-07-29T15:20:11;5.72;;;1.67;;
42098;SDS011;27758;55.900;8.516;2022-07-29T15:22:37;5.00;;;1.58;;
42098;SDS011;27758;55.900;8.516;2022-07-29T15:25:04;7.82;;;1.80;;
42098;SDS011;27758;55.900;8.516;2022-07-29T15:27:30;4.50;;;1.80;;
42098;SDS011;27758;55.900;8.516;2022-07-29T15:29:56;5.80;;;1.67;;
42098;SDS011;27758;55.900;8.516;2022-07-29T15:32:25;7.95;;;2.00;;
42098;SDS011;27758;55.900;8.516;2022-07-29T15:34:51;3.67;;;1.50;;
42098;SDS011;27758;55.900;8.516;2022-07-29T15:37:17;4.53;;;1.67;;
42098;SDS011;27758;55.900;8.516;2022-07-29T15:39:43;4.38;;;1.58;;